sensor_id;sensor_type;location;lat;lon;timestamp;pressure;altitude;pressure_sealevel;temperature;humidity
38912;BME280;28444;48.056;14.408;2023-07-24T00:00:13;97151.44;;;20.53;68.74
38912;BME280;28444;48.056;14.408;2023-07-24T00:02:39;97147.16;;;20.50;69.17
38912;BME280;28444;48.056;14.408;2023-07-24T00:05:07;97151.13;;;20.45;69.33
38912;BME280;28444;48.056;14.408;2023-07-24T00:07:33;97153.09;;;20.42;69.12
38912;BME280;28444;48.056;14.408;2023-07-24T00:10:00;97141.91;;;20.40;69.63
38912;BME280;28444;48.056;14.408;2023-07-24T00:12:26;97149.34;;;20.34;69.64
38912;BME280;28444;48.056;14.408;2023-07-24T00:14:53;97140.09;;;20.27;69.62
38912;BME280;28444;48.056;14.408;2023-07-24T00:17:20;97142.78;;;20.25;69.73
38912;BME280;28444;48.056;14.408;2023-07-24T00:19:47;97134.88;;;20.17;69.75
38912;BME280;28444;48.056;14.408;2023-07-24T00:22:13;97133.22;;;20.10;70.08
38912;BME280;28444;48.056;14.408;2023-07-24T00:24:40;97131.00;;;20.07;70.57
38912;BME280;28444;48.056;14.408;2023-07-24T00:27:07;97128.25;;;20.07;70.91
38912;BME280;28444;48.056;14.408;2023-07-24T00:29:33;97123.34;;;20.05;70.52
38912;BME280;28444;48.056;14.408;2023-07-24T00:32:00;97124.75;;;20.06;70.64
38912;BME280;28444;48.056;14.408;2023-07-24T00:34:26;97124.75;;;20.06;71.24
38912;BME280;28444;48.056;14.408;2023-07-24T00:36:55;97121.00;;;19.98;71.50
38912;BME280;28444;48.056;14.408;2023-07-24T00:39:21;97114.97;;;19.85;71.68
38912;BME280;28444;48.056;14.408;2023-07-24T00:41:48;97113.19;;;19.74;71.95
38912;BME280;28444;48.056;14.408;2023-07-24T00:44:15;97098.38;;;19.67;72.02
38912;BME280;28444;48.056;14.408;2023-07-24T00:46:41;97099.06;;;19.68;72.44
38912;BME280;28444;48.056;14.408;2023-07-24T00:49:08;97092.91;;;19.69;72.30
38912;BME280;28444;48.056;14.408;2023-07-24T00:51:35;97082.38;;;19.66;71.96
38912;BME280;28444;48.056;14.408;2023-07-24T00:54:02;97085.06;;;19.64;72.29
38912;BME280;28444;48.056;14.408;2023-07-24T00:56:31;97076.75;;;19.64;72.13
38912;BME280;28444;48.056;14.408;2023-07-24T00:59:00;97073.88;;;19.62;72.34
38912;BME280;28444;48.056;14.408;2023-07-24T01:01:28;97065.41;;;19.58;72.74
38912;BME280;28444;48.056;14.408;2023-07-24T01:03:57;97059.88;;;19.58;73.48
38912;BME280;28444;48.056;14.408;2023-07-24T01:06:24;97055.50;;;19.53;73.33
38912;BME280;28444;48.056;14.408;2023-07-24T01:08:51;97057.00;;;19.56;73.56
38912;BME280;28444;48.056;14.408;2023-07-24T01:11:25;97056.94;;;19.54;73.68
38912;BME280;28444;48.056;14.408;2023-07-24T01:14:44;97052.59;;;19.48;73.55
38912;BME280;28444;48.056;14.408;2023-07-24T01:16:46;97056.56;;;19.43;73.83
38912;BME280;28444;48.056;14.408;2023-07-24T01:19:35;97055.22;;;19.44;73.50
38912;BME280;28444;48.056;14.408;2023-07-24T01:22:12;97048.41;;;19.47;73.60
38912;BME280;28444;48.056;14.408;2023-07-24T01:27:33;97045.34;;;19.39;74.32
38912;BME280;28444;48.056;14.408;2023-07-24T01:29:59;97036.53;;;19.27;74.98
38912;BME280;28444;48.056;14.408;2023-07-24T01:32:26;97029.28;;;19.18;75.58
38912;BME280;28444;48.056;14.408;2023-07-24T01:34:54;97027.84;;;19.17;75.29
38912;BME280;28444;48.056;14.408;2023-07-24T01:37:22;97025.63;;;19.13;75.71
38912;BME280;28444;48.056;14.408;2023-07-24T01:39:50;97027.22;;;19.00;76.04
38912;BME280;28444;48.056;14.408;2023-07-24T01:42:17;97021.38;;;18.92;77.20
38912;BME280;28444;48.056;14.408;2023-07-24T01:44:44;97016.69;;;18.79;77.49
38912;BME280;28444;48.056;14.408;2023-07-24T01:47:10;97011.16;;;18.79;78.06
38912;BME280;28444;48.056;14.408;2023-07-24T01:49:37;97006.72;;;18.72;77.92
38912;BME280;28444;48.056;14.408;2023-07-24T01:52:04;97008.06;;;18.71;77.91
38912;BME280;28444;48.056;14.408;2023-07-24T01:54:30;97011.91;;;18.64;78.07
38912;BME280;28444;48.056;14.408;2023-07-24T01:56:57;97008.50;;;18.65;77.75
38912;BME280;28444;48.056;14.408;2023-07-24T01:59:24;97004.97;;;18.63;78.32
38912;BME280;28444;48.056;14.408;2023-07-24T02:01:50;97010.50;;;18.63;78.03
38912;BME280;28444;48.056;14.408;2023-07-24T02:04:17;97000.75;;;18.62;78.15
38912;BME280;28444;48.056;14.408;2023-07-24T02:06:44;96996.88;;;18.69;78.11
38912;BME280;28444;48.056;14.408;2023-07-24T02:09:10;96996.25;;;18.70;77.75
38912;BME280;28444;48.056;14.408;2023-07-24T02:11:37;97001.06;;;18.70;78.10
38912;BME280;28444;48.056;14.408;2023-07-24T02:14:04;97002.53;;;18.71;77.66
38912;BME280;28444;48.056;14.408;2023-07-24T02:16:30;97001.19;;;18.72;78.28
38912;BME280;28444;48.056;14.408;2023-07-24T02:18:57;97005.38;;;18.73;78.04
38912;BME280;28444;48.056;14.408;2023-07-24T02:21:24;96997.22;;;18.77;78.14
38912;BME280;28444;48.056;14.408;2023-07-24T02:23:50;96997.94;;;18.78;78.25
38912;BME280;28444;48.056;14.408;2023-07-24T02:26:17;96996.44;;;18.74;78.24
38912;BME280;28444;48.056;14.408;2023-07-24T02:28:43;97001.50;;;18.80;78.19
38912;BME280;28444;48.056;14.408;2023-07-24T02:31:11;96996.88;;;18.69;78.66
38912;BME280;28444;48.056;14.408;2023-07-24T02:33:37;97002.97;;;18.65;78.83
38912;BME280;28444;48.056;14.408;2023-07-24T02:36:04;96994.44;;;18.59;78.68
38912;BME280;28444;48.056;14.408;2023-07-24T02:38:30;96996.41;;;18.57;78.61
38912;BME280;28444;48.056;14.408;2023-07-24T02:40:57;97003.03;;;18.49;79.29
38912;BME280;28444;48.056;14.408;2023-07-24T02:43:24;97002.47;;;18.53;78.92
38912;BME280;28444;48.056;14.408;2023-07-24T02:45:50;96993.25;;;18.64;78.62
38912;BME280;28444;48.056;14.408;2023-07-24T02:48:17;96993.06;;;18.60;78.62
38912;BME280;28444;48.056;14.408;2023-07-24T02:50:44;96993.53;;;18.55;78.86
38912;BME280;28444;48.056;14.408;2023-07-24T02:53:10;96990.84;;;18.57;78.56
38912;BME280;28444;48.056;14.408;2023-07-24T02:55:42;96992.28;;;18.58;78.30
38912;BME280;28444;48.056;14.408;2023-07-24T02:58:08;96999.56;;;18.49;78.71
38912;BME280;28444;48.056;14.408;2023-07-24T03:00:35;97004.28;;;18.46;78.85
38912;BME280;28444;48.056;14.408;2023-07-24T03:03:02;96995.19;;;18.44;78.50
38912;BME280;28444;48.056;14.408;2023-07-24T03:05:29;96993.28;;;18.31;78.77
38912;BME280;28444;48.056;14.408;2023-07-24T03:07:55;96994.44;;;18.25;79.32
38912;BME280;28444;48.056;14.408;2023-07-24T03:10:23;96991.84;;;18.29;79.06
38912;BME280;28444;48.056;14.408;2023-07-24T03:12:50;97000.28;;;18.34;78.98
38912;BME280;28444;48.056;14.408;2023-07-24T03:15:16;96999.03;;;18.37;78.76
38912;BME280;28444;48.056;14.408;2023-07-24T03:17:43;97004.50;;;18.35;78.62
38912;BME280;28444;48.056;14.408;2023-07-24T03:20:14;97001.75;;;18.35;78.58
38912;BME280;28444;48.056;14.408;2023-07-24T03:22:42;97000.06;;;18.27;78.75
38912;BME280;28444;48.056;14.408;2023-07-24T03:25:09;96989.88;;;18.32;78.38
38912;BME280;28444;48.056;14.408;2023-07-24T03:27:36;97004.34;;;18.31;78.51
38912;BME280;28444;48.056;14.408;2023-07-24T03:30:03;96990.66;;;18.35;78.11
38912;BME280;28444;48.056;14.408;2023-07-24T03:32:30;96986.56;;;18.36;78.04
38912;BME280;28444;48.056;14.408;2023-07-24T03:34:56;96985.38;;;18.41;78.12
38912;BME280;28444;48.056;14.408;2023-07-24T03:37:23;96996.44;;;18.41;77.49
38912;BME280;28444;48.056;14.408;2023-07-24T03:39:49;96998.09;;;18.48;78.12
38912;BME280;28444;48.056;14.408;2023-07-24T03:42:26;96985.19;;;18.37;77.79
38912;BME280;28444;48.056;14.408;2023-07-24T03:44:54;96994.22;;;18.37;77.84
38912;BME280;28444;48.056;14.408;2023-07-24T03:47:21;96992.41;;;18.44;77.70
38912;BME280;28444;48.056;14.408;2023-07-24T03:49:47;97001.97;;;18.41;77.63
38912;BME280;28444;48.056;14.408;2023-07-24T03:52:14;97001.63;;;18.48;77.72
38912;BME280;28444;48.056;14.408;2023-07-24T03:54:41;96999.03;;;18.37;77.61
38912;BME280;28444;48.056;14.408;2023-07-24T03:57:08;96988.44;;;18.31;77.83
38912;BME280;28444;48.056;14.408;2023-07-24T03:59:35;96982.28;;;18.33;78.02
38912;BME280;28444;48.056;14.408;2023-07-24T04:02:02;96980.06;;;18.29;78.26
38912;BME280;28444;48.056;14.408;2023-07-24T04:04:29;96990.25;;;18.24;78.25
38912;BME280;28444;48.056;14.408;2023-07-24T04:06:56;96988.03;;;18.21;78.43
38912;BME280;28444;48.056;14.408;2023-07-24T04:09:22;96979.47;;;18.15;78.54
38912;BME280;28444;48.056;14.408;2023-07-24T04:11:49;96977.06;;;18.23;78.49
38912;BME280;28444;48.056;14.408;2023-07-24T04:14:15;96969.16;;;18.33;78.45
38912;BME280;28444;48.056;14.408;2023-07-24T04:16:42;96959.38;;;18.30;78.59
38912;BME280;28444;48.056;14.408;2023-07-24T04:19:09;96951.84;;;18.33;77.98
38912;BME280;28444;48.056;14.408;2023-07-24T04:21:35;96963.63;;;18.33;78.02
38912;BME280;28444;48.056;14.408;2023-07-24T04:24:02;96957.91;;;18.29;78.32
38912;BME280;28444;48.056;14.408;2023-07-24T04:26:29;96954.59;;;18.33;78.26
38912;BME280;28444;48.056;14.408;2023-07-24T04:28:56;96950.97;;;18.28;78.64
38912;BME280;28444;48.056;14.408;2023-07-24T04:31:22;96953.03;;;18.27;78.50
38912;BME280;28444;48.056;14.408;2023-07-24T04:33:49;96958.00;;;18.31;78.75
38912;BME280;28444;48.056;14.408;2023-07-24T04:36:16;96956.34;;;18.24;79.00
38912;BME280;28444;48.056;14.408;2023-07-24T04:38:51;96969.09;;;18.15;79.34
38912;BME280;28444;48.056;14.408;2023-07-24T04:41:17;96972.63;;;18.16;79.57
38912;BME280;28444;48.056;14.408;2023-07-24T04:43:44;96959.91;;;18.26;79.37
38912;BME280;28444;48.056;14.408;2023-07-24T04:46:10;96964.72;;;18.26;79.28
38912;BME280;28444;48.056;14.408;2023-07-24T04:48:37;96962.59;;;18.42;79.46
38912;BME280;28444;48.056;14.408;2023-07-24T04:51:04;96958.09;;;18.51;79.26
38912;BME280;28444;48.056;14.408;2023-07-24T04:53:31;96961.13;;;18.57;79.30
38912;BME280;28444;48.056;14.408;2023-07-24T04:55:57;96958.13;;;18.69;78.67
38912;BME280;28444;48.056;14.408;2023-07-24T04:58:24;96963.06;;;18.88;78.08
38912;BME280;28444;48.056;14.408;2023-07-24T05:00:51;96960.09;;;19.02;77.54
38912;BME280;28444;48.056;14.408;2023-07-24T05:03:17;96969.50;;;19.13;77.66
38912;BME280;28444;48.056;14.408;2023-07-24T05:05:48;96973.09;;;19.35;77.13
38912;BME280;28444;48.056;14.408;2023-07-24T05:08:14;96974.44;;;19.34;76.47
38912;BME280;28444;48.056;14.408;2023-07-24T05:10:41;96976.19;;;19.43;76.71
38912;BME280;28444;48.056;14.408;2023-07-24T05:13:08;96972.28;;;19.51;76.36
38912;BME280;28444;48.056;14.408;2023-07-24T05:15:38;96989.63;;;19.51;76.53
38912;BME280;28444;48.056;14.408;2023-07-24T05:18:04;96986.63;;;19.45;76.98
38912;BME280;28444;48.056;14.408;2023-07-24T05:20:31;96982.63;;;19.30;77.49
38912;BME280;28444;48.056;14.408;2023-07-24T05:22:57;96979.94;;;19.32;77.64
38912;BME280;28444;48.056;14.408;2023-07-24T05:25:24;96989.34;;;19.43;76.52
38912;BME280;28444;48.056;14.408;2023-07-24T05:27:51;96993.94;;;19.56;76.57
38912;BME280;28444;48.056;14.408;2023-07-24T05:30:17;97001.78;;;19.62;76.23
38912;BME280;28444;48.056;14.408;2023-07-24T05:32:44;96998.91;;;19.78;75.59
38912;BME280;28444;48.056;14.408;2023-07-24T05:35:10;96994.50;;;19.70;75.73
38912;BME280;28444;48.056;14.408;2023-07-24T05:37:37;96999.25;;;19.68;75.47
38912;BME280;28444;48.056;14.408;2023-07-24T05:40:04;97009.38;;;19.79;75.83
38912;BME280;28444;48.056;14.408;2023-07-24T05:42:31;97001.63;;;19.76;75.82
38912;BME280;28444;48.056;14.408;2023-07-24T05:44:58;96990.59;;;19.78;76.08
38912;BME280;28444;48.056;14.408;2023-07-24T05:47:25;96994.06;;;19.78;76.06
38912;BME280;28444;48.056;14.408;2023-07-24T05:49:52;96986.19;;;19.90;75.81
38912;BME280;28444;48.056;14.408;2023-07-24T05:52:18;96998.97;;;20.00;74.69
38912;BME280;28444;48.056;14.408;2023-07-24T05:54:45;97004.97;;;20.12;73.88
38912;BME280;28444;48.056;14.408;2023-07-24T05:57:11;97000.22;;;20.36;72.97
38912;BME280;28444;48.056;14.408;2023-07-24T05:59:38;96998.00;;;20.53;72.69
38912;BME280;28444;48.056;14.408;2023-07-24T06:02:05;96994.44;;;20.72;72.35
38912;BME280;28444;48.056;14.408;2023-07-24T06:04:31;97001.53;;;20.99;71.41
38912;BME280;28444;48.056;14.408;2023-07-24T06:06:58;97003.78;;;21.05;71.29
38912;BME280;28444;48.056;14.408;2023-07-24T06:09:25;97006.44;;;21.01;71.01
38912;BME280;28444;48.056;14.408;2023-07-24T06:11:51;96997.66;;;20.86;71.59
38912;BME280;28444;48.056;14.408;2023-07-24T06:14:18;97032.56;;;20.91;71.84
38912;BME280;28444;48.056;14.408;2023-07-24T06:16:45;97066.78;;;20.98;72.13
38912;BME280;28444;48.056;14.408;2023-07-24T06:19:11;97074.31;;;20.94;72.39
38912;BME280;28444;48.056;14.408;2023-07-24T06:21:38;97066.66;;;20.72;73.32
38912;BME280;28444;48.056;14.408;2023-07-24T06:24:05;97062.53;;;20.73;73.61
38912;BME280;28444;48.056;14.408;2023-07-24T06:26:31;97074.03;;;20.85;74.19
38912;BME280;28444;48.056;14.408;2023-07-24T06:28:58;97068.72;;;21.15;73.35
38912;BME280;28444;48.056;14.408;2023-07-24T06:31:25;97059.41;;;21.29;72.45
38912;BME280;28444;48.056;14.408;2023-07-24T06:33:51;97060.81;;;21.52;71.73
38912;BME280;28444;48.056;14.408;2023-07-24T06:36:18;97045.72;;;21.59;71.55
38912;BME280;28444;48.056;14.408;2023-07-24T06:38:45;97039.56;;;21.62;72.20
38912;BME280;28444;48.056;14.408;2023-07-24T06:41:14;97029.34;;;21.69;71.59
38912;BME280;28444;48.056;14.408;2023-07-24T06:43:42;97029.91;;;21.90;71.45
38912;BME280;28444;48.056;14.408;2023-07-24T06:46:09;97035.97;;;22.08;70.35
38912;BME280;28444;48.056;14.408;2023-07-24T06:48:35;97044.28;;;22.32;69.35
38912;BME280;28444;48.056;14.408;2023-07-24T06:51:02;97025.72;;;22.41;69.08
38912;BME280;28444;48.056;14.408;2023-07-24T06:53:29;97022.75;;;22.34;69.28
38912;BME280;28444;48.056;14.408;2023-07-24T06:55:55;97011.94;;;22.47;68.78
38912;BME280;28444;48.056;14.408;2023-07-24T06:58:22;97007.72;;;22.46;68.48
38912;BME280;28444;48.056;14.408;2023-07-24T07:00:49;97006.56;;;22.55;68.26
38912;BME280;28444;48.056;14.408;2023-07-24T07:03:15;97011.19;;;22.44;67.89
38912;BME280;28444;48.056;14.408;2023-07-24T07:05:42;97008.63;;;22.54;68.29
38912;BME280;28444;48.056;14.408;2023-07-24T07:08:09;96993.91;;;22.80;66.95
38912;BME280;28444;48.056;14.408;2023-07-24T07:10:35;96979.34;;;22.81;65.87
38912;BME280;28444;48.056;14.408;2023-07-24T07:13:02;96979.47;;;22.88;66.00
38912;BME280;28444;48.056;14.408;2023-07-24T07:15:28;96982.41;;;22.94;66.54
38912;BME280;28444;48.056;14.408;2023-07-24T07:17:55;96990.94;;;23.00;66.24
38912;BME280;28444;48.056;14.408;2023-07-24T07:20:22;96991.16;;;23.10;66.01
38912;BME280;28444;48.056;14.408;2023-07-24T07:22:49;96979.31;;;23.10;65.27
38912;BME280;28444;48.056;14.408;2023-07-24T07:25:16;96978.41;;;23.33;64.81
38912;BME280;28444;48.056;14.408;2023-07-24T07:27:43;96974.84;;;23.30;63.69
38912;BME280;28444;48.056;14.408;2023-07-24T07:30:10;96978.97;;;23.27;64.16
38912;BME280;28444;48.056;14.408;2023-07-24T07:32:36;96984.47;;;23.23;64.92
38912;BME280;28444;48.056;14.408;2023-07-24T07:35:03;96976.94;;;23.30;64.26
38912;BME280;28444;48.056;14.408;2023-07-24T07:37:30;96966.53;;;23.33;65.07
38912;BME280;28444;48.056;14.408;2023-07-24T07:39:56;96955.53;;;23.41;65.29
38912;BME280;28444;48.056;14.408;2023-07-24T07:42:23;96941.94;;;23.57;64.33
38912;BME280;28444;48.056;14.408;2023-07-24T07:44:50;96945.44;;;23.58;64.11
38912;BME280;28444;48.056;14.408;2023-07-24T07:47:16;96942.78;;;23.66;65.21
38912;BME280;28444;48.056;14.408;2023-07-24T07:49:43;96941.84;;;23.89;64.51
38912;BME280;28444;48.056;14.408;2023-07-24T07:52:10;96936.25;;;23.87;63.82
38912;BME280;28444;48.056;14.408;2023-07-24T07:54:36;96921.19;;;24.05;63.13
38912;BME280;28444;48.056;14.408;2023-07-24T07:57:06;96921.84;;;24.03;61.94
38912;BME280;28444;48.056;14.408;2023-07-24T07:59:33;96935.22;;;24.09;62.55
38912;BME280;28444;48.056;14.408;2023-07-24T08:02:01;96928.53;;;24.26;63.64
38912;BME280;28444;48.056;14.408;2023-07-24T08:04:28;96912.56;;;24.33;62.00
38912;BME280;28444;48.056;14.408;2023-07-24T08:06:54;96907.34;;;24.53;60.40
38912;BME280;28444;48.056;14.408;2023-07-24T08:09:21;96912.41;;;24.65;61.13
38912;BME280;28444;48.056;14.408;2023-07-24T08:11:51;96920.91;;;24.73;60.98
38912;BME280;28444;48.056;14.408;2023-07-24T08:14:18;96915.59;;;24.91;59.63
38912;BME280;28444;48.056;14.408;2023-07-24T08:16:44;96920.09;;;25.13;59.10
38912;BME280;28444;48.056;14.408;2023-07-24T08:19:11;96911.75;;;25.19;58.03
38912;BME280;28444;48.056;14.408;2023-07-24T08:21:38;96897.88;;;25.27;57.96
38912;BME280;28444;48.056;14.408;2023-07-24T08:24:05;96896.66;;;25.42;58.99
38912;BME280;28444;48.056;14.408;2023-07-24T08:26:32;96889.72;;;25.45;59.00
38912;BME280;28444;48.056;14.408;2023-07-24T08:28:59;96880.78;;;25.63;57.17
38912;BME280;28444;48.056;14.408;2023-07-24T08:31:25;96878.88;;;25.78;58.52
38912;BME280;28444;48.056;14.408;2023-07-24T08:33:52;96876.13;;;25.84;57.63
38912;BME280;28444;48.056;14.408;2023-07-24T08:36:20;96869.97;;;25.98;56.65
38912;BME280;28444;48.056;14.408;2023-07-24T08:38:47;96861.47;;;25.88;56.27
38912;BME280;28444;48.056;14.408;2023-07-24T08:41:14;96854.53;;;25.93;56.36
38912;BME280;28444;48.056;14.408;2023-07-24T08:43:42;96852.47;;;26.00;55.05
38912;BME280;28444;48.056;14.408;2023-07-24T08:46:10;96851.78;;;26.01;54.67
38912;BME280;28444;48.056;14.408;2023-07-24T08:48:41;96837.88;;;26.13;54.49
38912;BME280;28444;48.056;14.408;2023-07-24T08:51:12;96837.94;;;26.22;55.50
38912;BME280;28444;48.056;14.408;2023-07-24T08:53:40;96838.78;;;26.42;53.18
38912;BME280;28444;48.056;14.408;2023-07-24T08:56:10;96842.38;;;26.53;53.73
38912;BME280;28444;48.056;14.408;2023-07-24T08:58:36;96830.50;;;26.55;53.56
38912;BME280;28444;48.056;14.408;2023-07-24T09:01:06;96834.75;;;26.68;53.76
38912;BME280;28444;48.056;14.408;2023-07-24T09:03:33;96830.59;;;26.79;52.92
38912;BME280;28444;48.056;14.408;2023-07-24T09:06:00;96828.56;;;26.90;53.28
38912;BME280;28444;48.056;14.408;2023-07-24T09:08:41;96820.16;;;26.94;51.20
38912;BME280;28444;48.056;14.408;2023-07-24T09:11:09;96818.09;;;27.01;52.05
38912;BME280;28444;48.056;14.408;2023-07-24T09:13:38;96806.25;;;27.19;51.40
38912;BME280;28444;48.056;14.408;2023-07-24T09:16:05;96793.63;;;27.22;53.92
38912;BME280;28444;48.056;14.408;2023-07-24T09:18:58;96788.06;;;27.32;50.03
38912;BME280;28444;48.056;14.408;2023-07-24T09:21:37;96778.94;;;27.44;49.72
38912;BME280;28444;48.056;14.408;2023-07-24T09:24:13;96771.25;;;27.52;51.23
38912;BME280;28444;48.056;14.408;2023-07-24T09:26:51;96768.44;;;27.67;47.58
38912;BME280;28444;48.056;14.408;2023-07-24T09:29:30;96763.56;;;27.77;48.55
38912;BME280;28444;48.056;14.408;2023-07-24T09:31:58;96761.47;;;27.96;49.58
38912;BME280;28444;48.056;14.408;2023-07-24T09:34:25;96760.75;;;28.08;49.28
38912;BME280;28444;48.056;14.408;2023-07-24T09:36:55;96750.22;;;28.08;48.01
38912;BME280;28444;48.056;14.408;2023-07-24T09:39:26;96749.50;;;28.18;48.84
38912;BME280;28444;48.056;14.408;2023-07-24T09:42:03;96747.34;;;28.33;49.95
38912;BME280;28444;48.056;14.408;2023-07-24T09:44:33;96737.50;;;28.48;48.55
38912;BME280;28444;48.056;14.408;2023-07-24T09:47:01;96737.50;;;28.46;48.87
38912;BME280;28444;48.056;14.408;2023-07-24T09:49:48;96733.97;;;28.52;49.71
38912;BME280;28444;48.056;14.408;2023-07-24T09:52:17;96721.97;;;28.64;48.05
38912;BME280;28444;48.056;14.408;2023-07-24T09:55:16;96716.38;;;28.62;48.85
38912;BME280;28444;48.056;14.408;2023-07-24T09:57:46;96714.22;;;28.70;48.05
38912;BME280;28444;48.056;14.408;2023-07-24T10:00:14;96711.38;;;28.76;48.40
38912;BME280;28444;48.056;14.408;2023-07-24T10:02:41;96716.28;;;28.80;49.99
38912;BME280;28444;48.056;14.408;2023-07-24T10:05:08;96699.47;;;28.68;50.91
38912;BME280;28444;48.056;14.408;2023-07-24T10:07:35;96702.22;;;28.78;48.70
38912;BME280;28444;48.056;14.408;2023-07-24T10:10:02;96698.03;;;28.71;48.59
38912;BME280;28444;48.056;14.408;2023-07-24T10:12:29;96694.56;;;28.60;49.74
38912;BME280;28444;48.056;14.408;2023-07-24T10:14:58;96676.97;;;28.68;49.21
38912;BME280;28444;48.056;14.408;2023-07-24T10:17:38;96660.19;;;28.51;49.97
38912;BME280;28444;48.056;14.408;2023-07-24T10:20:07;96661.59;;;28.46;51.55
38912;BME280;28444;48.056;14.408;2023-07-24T10:22:35;96662.31;;;28.49;50.50
38912;BME280;28444;48.056;14.408;2023-07-24T10:25:02;96660.19;;;28.51;51.31
38912;BME280;28444;48.056;14.408;2023-07-24T10:27:29;96670.03;;;28.54;51.05
38912;BME280;28444;48.056;14.408;2023-07-24T10:30:03;96669.19;;;28.81;50.11
38912;BME280;28444;48.056;14.408;2023-07-24T10:32:47;96669.09;;;28.95;49.59
38912;BME280;28444;48.056;14.408;2023-07-24T10:35:17;96671.22;;;28.92;50.95
38912;BME280;28444;48.056;14.408;2023-07-24T10:37:46;96659.94;;;28.96;49.42
38912;BME280;28444;48.056;14.408;2023-07-24T10:40:20;96656.47;;;28.90;49.74
38912;BME280;28444;48.056;14.408;2023-07-24T10:43:01;96664.94;;;28.84;49.80
38912;BME280;28444;48.056;14.408;2023-07-24T10:45:50;96676.88;;;28.82;51.86
38912;BME280;28444;48.056;14.408;2023-07-24T10:48:20;96674.00;;;29.00;50.09
38912;BME280;28444;48.056;14.408;2023-07-24T10:50:50;96678.88;;;29.06;50.34
38912;BME280;28444;48.056;14.408;2023-07-24T10:53:21;96690.88;;;28.96;49.52
38912;BME280;28444;48.056;14.408;2023-07-24T10:55:50;96702.13;;;29.00;49.37
38912;BME280;28444;48.056;14.408;2023-07-24T10:58:17;96705.59;;;29.09;48.70
38912;BME280;28444;48.056;14.408;2023-07-24T11:00:45;96699.28;;;29.07;49.79
38912;BME280;28444;48.056;14.408;2023-07-24T11:03:14;96697.88;;;29.03;49.11
38912;BME280;28444;48.056;14.408;2023-07-24T11:05:42;96694.38;;;29.05;49.80
38912;BME280;28444;48.056;14.408;2023-07-24T11:08:16;96695.69;;;29.18;49.92
38912;BME280;28444;48.056;14.408;2023-07-24T11:10:50;96697.09;;;29.15;49.09
38912;BME280;28444;48.056;14.408;2023-07-24T11:13:22;96707.09;;;28.86;49.05
38912;BME280;28444;48.056;14.408;2023-07-24T11:15:50;96708.44;;;28.97;49.38
38912;BME280;28444;48.056;14.408;2023-07-24T11:18:17;96720.44;;;28.91;49.55
38912;BME280;28444;48.056;14.408;2023-07-24T11:20:49;96729.03;;;28.57;49.52
38912;BME280;28444;48.056;14.408;2023-07-24T11:23:16;96726.19;;;28.63;49.87
38912;BME280;28444;48.056;14.408;2023-07-24T11:25:44;96736.06;;;28.53;48.86
38912;BME280;28444;48.056;14.408;2023-07-24T11:28:12;96733.25;;;28.49;49.29
38912;BME280;28444;48.056;14.408;2023-07-24T11:30:40;96738.91;;;28.35;48.11
38912;BME280;28444;48.056;14.408;2023-07-24T11:33:08;96738.91;;;28.45;48.73
38912;BME280;28444;48.056;14.408;2023-07-24T11:35:36;96746.66;;;28.30;48.45
38912;BME280;28444;48.056;14.408;2023-07-24T11:38:06;96736.78;;;28.36;49.64
38912;BME280;28444;48.056;14.408;2023-07-24T11:43:03;96736.84;;;28.25;49.07
38912;BME280;28444;48.056;14.408;2023-07-24T11:45:30;96731.91;;;28.18;49.16
38912;BME280;28444;48.056;14.408;2023-07-24T11:47:57;96732.63;;;28.18;47.90
38912;BME280;28444;48.056;14.408;2023-07-24T11:50:25;96712.97;;;28.22;48.63
38912;BME280;28444;48.056;14.408;2023-07-24T11:52:52;96709.47;;;28.14;47.91
38912;BME280;28444;48.056;14.408;2023-07-24T11:55:30;96710.88;;;28.11;48.71
38912;BME280;28444;48.056;14.408;2023-07-24T11:57:59;96712.31;;;27.87;48.32
38912;BME280;28444;48.056;14.408;2023-07-24T12:00:26;96710.94;;;27.76;48.60
38912;BME280;28444;48.056;14.408;2023-07-24T12:02:59;96701.06;;;27.99;48.89
38912;BME280;28444;48.056;14.408;2023-07-24T12:05:26;96692.63;;;28.07;48.45
38912;BME280;28444;48.056;14.408;2023-07-24T12:07:54;96697.56;;;28.01;48.05
38912;BME280;28444;48.056;14.408;2023-07-24T12:10:30;96693.31;;;28.10;48.84
38912;BME280;28444;48.056;14.408;2023-07-24T12:12:58;96699.63;;;28.15;48.82
38912;BME280;28444;48.056;14.408;2023-07-24T12:15:26;96705.25;;;28.06;48.97
38912;BME280;28444;48.056;14.408;2023-07-24T12:17:55;96701.06;;;27.99;49.97
38912;BME280;28444;48.056;14.408;2023-07-24T12:20:23;96708.09;;;27.90;49.30
38912;BME280;28444;48.056;14.408;2023-07-24T12:22:50;96701.06;;;28.01;50.33
38912;BME280;28444;48.056;14.408;2023-07-24T12:25:17;96694.78;;;27.82;49.96
38912;BME280;28444;48.056;14.408;2023-07-24T12:27:43;96682.78;;;28.02;50.76
38912;BME280;28444;48.056;14.408;2023-07-24T12:30:10;96684.25;;;27.93;48.27
38912;BME280;28444;48.056;14.408;2023-07-24T12:32:38;96682.81;;;27.88;48.04
38912;BME280;28444;48.056;14.408;2023-07-24T12:35:06;96673.00;;;27.97;48.44
38912;BME280;28444;48.056;14.408;2023-07-24T12:37:33;96682.13;;;27.94;47.44
38912;BME280;28444;48.056;14.408;2023-07-24T12:40:00;96675.78;;;27.95;47.63
38912;BME280;28444;48.056;14.408;2023-07-24T12:42:27;96678.56;;;28.12;48.57
38912;BME280;28444;48.056;14.408;2023-07-24T12:44:53;96683.47;;;28.15;47.70
38912;BME280;28444;48.056;14.408;2023-07-24T12:47:23;96682.06;;;28.16;48.23
38912;BME280;28444;48.056;14.408;2023-07-24T12:49:50;96672.22;;;28.17;47.07
38912;BME280;28444;48.056;14.408;2023-07-24T12:52:18;96665.91;;;28.19;47.23
38912;BME280;28444;48.056;14.408;2023-07-24T12:54:45;96675.00;;;28.38;47.57
38912;BME280;28444;48.056;14.408;2023-07-24T12:57:26;96672.19;;;28.31;47.03
38912;BME280;28444;48.056;14.408;2023-07-24T12:59:53;96668.00;;;28.20;47.54